sensor_id;sensor_type;location;lat;lon;timestamp;temperature;humidity
4964;DHT22;2497;47.410;9.740;2023-04-06T00:01:34;2.80;99.90
4964;DHT22;2497;47.410;9.740;2023-04-06T00:04:01;2.70;99.90
4964;DHT22;2497;47.410;9.740;2023-04-06T00:06:28;2.60;99.90
4964;DHT22;2497;47.410;9.740;2023-04-06T00:08:56;2.60;99.90
4964;DHT22;2497;47.410;9.740;2023-04-06T00:11:23;2.50;99.90
4964;DHT22;2497;47.410;9.740;2023-04-06T00:13:51;2.40;99.90
4964;DHT22;2497;47.410;9.740;2023-04-06T00:16:20;2.40;99.90
4964;DHT22;2497;47.410;9.740;2023-04-06T00:18:47;2.30;99.90
4964;DHT22;2497;47.410;9.740;2023-04-06T00:21:14;2.20;99.90
4964;DHT22;2497;47.410;9.740;2023-04-06T00:23:42;2.10;99.90
4964;DHT22;2497;47.410;9.740;2023-04-06T00:26:09;2.10;99.90
4964;DHT22;2497;47.410;9.740;2023-04-06T00:28:37;2.00;99.90
4964;DHT22;2497;47.410;9.740;2023-04-06T00:31:04;1.90;99.90
4964;DHT22;2497;47.410;9.740;2023-04-06T00:33:32;1.90;99.90
4964;DHT22;2497;47.410;9.740;2023-04-06T00:36:00;1.90;99.90
4964;DHT22;2497;47.410;9.740;2023-04-06T00:38:27;2.00;99.90
4964;DHT22;2497;47.410;9.740;2023-04-06T00:40:54;1.90;99.90
4964;DHT22;2497;47.410;9.740;2023-04-06T00:43:21;1.90;99.90
4964;DHT22;2497;47.410;9.740;2023-04-06T00:45:50;1.90;99.90
4964;DHT22;2497;47.410;9.740;2023-04-06T00:48:17;2.00;99.90
4964;DHT22;2497;47.410;9.740;2023-04-06T00:50:45;2.10;99.90
4964;DHT22;2497;47.410;9.740;2023-04-06T00:53:13;2.30;99.90
4964;DHT22;2497;47.410;9.740;2023-04-06T00:55:40;2.40;99.90
4964;DHT22;2497;47.410;9.740;2023-04-06T00:58:08;2.40;99.90
4964;DHT22;2497;47.410;9.740;2023-04-06T01:00:35;2.40;99.90
4964;DHT22;2497;47.410;9.740;2023-04-06T01:03:02;2.40;99.90
4964;DHT22;2497;47.410;9.740;2023-04-06T01:05:33;2.40;99.90
4964;DHT22;2497;47.410;9.740;2023-04-06T01:08:02;2.40;99.90
4964;DHT22;2497;47.410;9.740;2023-04-06T01:10:29;2.30;99.90
4964;DHT22;2497;47.410;9.740;2023-04-06T01:12:57;2.30;99.90
4964;DHT22;2497;47.410;9.740;2023-04-06T01:15:24;2.30;99.90
4964;DHT22;2497;47.410;9.740;2023-04-06T01:17:52;2.40;99.90
4964;DHT22;2497;47.410;9.740;2023-04-06T01:20:20;2.40;99.90
4964;DHT22;2497;47.410;9.740;2023-04-06T01:22:48;2.30;99.90
4964;DHT22;2497;47.410;9.740;2023-04-06T01:25:16;2.30;99.90
4964;DHT22;2497;47.410;9.740;2023-04-06T01:27:43;2.30;99.90
4964;DHT22;2497;47.410;9.740;2023-04-06T01:30:11;2.20;99.90
4964;DHT22;2497;47.410;9.740;2023-04-06T01:32:38;2.10;99.90
4964;DHT22;2497;47.410;9.740;2023-04-06T01:35:06;2.00;99.90
4964;DHT22;2497;47.410;9.740;2023-04-06T01:37:33;1.90;99.90
4964;DHT22;2497;47.410;9.740;2023-04-06T01:40:02;1.80;99.90
4964;DHT22;2497;47.410;9.740;2023-04-06T01:42:29;1.70;99.90
4964;DHT22;2497;47.410;9.740;2023-04-06T01:44:57;1.70;99.90
4964;DHT22;2497;47.410;9.740;2023-04-06T01:47:24;1.50;99.90
4964;DHT22;2497;47.410;9.740;2023-04-06T01:49:51;1.50;99.90
4964;DHT22;2497;47.410;9.740;2023-04-06T01:52:19;1.50;99.90
4964;DHT22;2497;47.410;9.740;2023-04-06T01:54:46;1.40;99.90
4964;DHT22;2497;47.410;9.740;2023-04-06T01:57:15;1.50;99.90
4964;DHT22;2497;47.410;9.740;2023-04-06T01:59:42;1.60;99.90
4964;DHT22;2497;47.410;9.740;2023-04-06T02:02:09;1.80;99.90
4964;DHT22;2497;47.410;9.740;2023-04-06T02:04:38;1.70;99.90
4964;DHT22;2497;47.410;9.740;2023-04-06T02:07:05;1.80;99.90
4964;DHT22;2497;47.410;9.740;2023-04-06T02:09:32;2.00;99.90
4964;DHT22;2497;47.410;9.740;2023-04-06T02:12:00;2.10;99.90
4964;DHT22;2497;47.410;9.740;2023-04-06T02:14:28;2.20;99.90
4964;DHT22;2497;47.410;9.740;2023-04-06T02:16:56;2.20;99.90
4964;DHT22;2497;47.410;9.740;2023-04-06T02:19:23;2.30;99.90
4964;DHT22;2497;47.410;9.740;2023-04-06T02:21:50;2.30;99.90
4964;DHT22;2497;47.410;9.740;2023-04-06T02:24:17;2.30;99.90
4964;DHT22;2497;47.410;9.740;2023-04-06T02:26:44;2.40;99.90
4964;DHT22;2497;47.410;9.740;2023-04-06T02:29:11;2.40;99.90
4964;DHT22;2497;47.410;9.740;2023-04-06T02:31:40;2.50;99.90
4964;DHT22;2497;47.410;9.740;2023-04-06T02:34:07;2.40;99.90
4964;DHT22;2497;47.410;9.740;2023-04-06T02:36:37;2.40;99.90
4964;DHT22;2497;47.410;9.740;2023-04-06T02:39:05;2.40;99.90
4964;DHT22;2497;47.410;9.740;2023-04-06T02:41:32;2.20;99.90
4964;DHT22;2497;47.410;9.740;2023-04-06T02:43:59;2.20;99.90
4964;DHT22;2497;47.410;9.740;2023-04-06T02:46:26;2.20;99.90
4964;DHT22;2497;47.410;9.740;2023-04-06T02:48:55;2.00;99.90
4964;DHT22;2497;47.410;9.740;2023-04-06T02:51:22;1.90;99.90
4964;DHT22;2497;47.410;9.740;2023-04-06T02:53:49;1.80;99.90
4964;DHT22;2497;47.410;9.740;2023-04-06T02:56:16;1.70;99.90
4964;DHT22;2497;47.410;9.740;2023-04-06T02:58:44;1.60;99.90
4964;DHT22;2497;47.410;9.740;2023-04-06T03:01:11;1.50;99.90
4964;DHT22;2497;47.410;9.740;2023-04-06T03:03:38;1.50;99.90
4964;DHT22;2497;47.410;9.740;2023-04-06T03:06:07;1.40;99.90
4964;DHT22;2497;47.410;9.740;2023-04-06T03:08:34;1.30;99.90
4964;DHT22;2497;47.410;9.740;2023-04-06T03:11:01;1.20;99.90
4964;DHT22;2497;47.410;9.740;2023-04-06T03:13:28;1.00;99.90
4964;DHT22;2497;47.410;9.740;2023-04-06T03:15:55;1.00;99.90
4964;DHT22;2497;47.410;9.740;2023-04-06T03:18:24;0.90;99.90
4964;DHT22;2497;47.410;9.740;2023-04-06T03:20:52;0.90;99.90
4964;DHT22;2497;47.410;9.740;2023-04-06T03:23:22;0.90;99.90
4964;DHT22;2497;47.410;9.740;2023-04-06T03:25:49;0.90;99.90
4964;DHT22;2497;47.410;9.740;2023-04-06T03:28:16;0.70;99.90
4964;DHT22;2497;47.410;9.740;2023-04-06T03:30:43;0.70;99.90
4964;DHT22;2497;47.410;9.740;2023-04-06T03:33:11;0.60;99.90
4964;DHT22;2497;47.410;9.740;2023-04-06T03:35:38;0.70;99.90
4964;DHT22;2497;47.410;9.740;2023-04-06T03:38:05;0.70;99.90
4964;DHT22;2497;47.410;9.740;2023-04-06T03:40:34;0.70;99.90
4964;DHT22;2497;47.410;9.740;2023-04-06T03:43:01;0.70;99.90
4964;DHT22;2497;47.410;9.740;2023-04-06T03:45:28;0.70;99.90
4964;DHT22;2497;47.410;9.740;2023-04-06T03:47:56;0.70;99.90
4964;DHT22;2497;47.410;9.740;2023-04-06T03:50:23;0.80;99.90
4964;DHT22;2497;47.410;9.740;2023-04-06T03:52:50;0.70;99.90
4964;DHT22;2497;47.410;9.740;2023-04-06T03:55:18;0.70;99.90
4964;DHT22;2497;47.410;9.740;2023-04-06T03:57:46;0.70;99.90
4964;DHT22;2497;47.410;9.740;2023-04-06T04:00:14;0.80;99.90
4964;DHT22;2497;47.410;9.740;2023-04-06T04:02:41;0.80;99.90
4964;DHT22;2497;47.410;9.740;2023-04-06T04:05:09;0.60;99.90
4964;DHT22;2497;47.410;9.740;2023-04-06T04:07:36;0.60;99.90
4964;DHT22;2497;47.410;9.740;2023-04-06T04:10:04;0.50;99.90
4964;DHT22;2497;47.410;9.740;2023-04-06T04:12:31;0.50;99.90
4964;DHT22;2497;47.410;9.740;2023-04-06T04:15:00;0.60;99.90
4964;DHT22;2497;47.410;9.740;2023-04-06T04:17:29;0.60;99.90
4964;DHT22;2497;47.410;9.740;2023-04-06T04:19:56;0.40;99.90
4964;DHT22;2497;47.410;9.740;2023-04-06T04:22:23;0.40;99.90
4964;DHT22;2497;47.410;9.740;2023-04-06T04:24:51;0.30;99.90
4964;DHT22;2497;47.410;9.740;2023-04-06T04:27:18;0.30;99.90
4964;DHT22;2497;47.410;9.740;2023-04-06T04:29:46;0.30;99.90
4964;DHT22;2497;47.410;9.740;2023-04-06T04:32:14;0.20;99.90
4964;DHT22;2497;47.410;9.740;2023-04-06T04:34:42;0.30;99.90
4964;DHT22;2497;47.410;9.740;2023-04-06T04:37:09;0.20;99.90
4964;DHT22;2497;47.410;9.740;2023-04-06T04:39:36;0.30;99.90
4964;DHT22;2497;47.410;9.740;2023-04-06T04:42:03;0.30;99.90
4964;DHT22;2497;47.410;9.740;2023-04-06T04:44:31;0.30;99.90
4964;DHT22;2497;47.410;9.740;2023-04-06T04:46:58;0.30;99.90
4964;DHT22;2497;47.410;9.740;2023-04-06T04:49:26;0.40;99.90
4964;DHT22;2497;47.410;9.740;2023-04-06T04:51:53;0.30;99.90
4964;DHT22;2497;47.410;9.740;2023-04-06T04:54:21;0.30;99.90
4964;DHT22;2497;47.410;9.740;2023-04-06T04:56:50;0.30;99.90
4964;DHT22;2497;47.410;9.740;2023-04-06T04:59:20;0.30;99.90
4964;DHT22;2497;47.410;9.740;2023-04-06T05:01:53;0.20;99.90
4964;DHT22;2497;47.410;9.740;2023-04-06T05:04:29;0.30;99.90
4964;DHT22;2497;47.410;9.740;2023-04-06T05:07:06;0.30;99.90
4964;DHT22;2497;47.410;9.740;2023-04-06T05:09:44;0.20;99.90
4964;DHT22;2497;47.410;9.740;2023-04-06T05:12:12;0.20;99.90
4964;DHT22;2497;47.410;9.740;2023-04-06T05:14:40;0.30;99.90
4964;DHT22;2497;47.410;9.740;2023-04-06T05:17:07;0.50;99.90
4964;DHT22;2497;47.410;9.740;2023-04-06T05:19:36;0.50;99.90
4964;DHT22;2497;47.410;9.740;2023-04-06T05:22:04;0.40;99.90
4964;DHT22;2497;47.410;9.740;2023-04-06T05:24:31;0.30;99.90
4964;DHT22;2497;47.410;9.740;2023-04-06T05:26:58;0.30;99.90
4964;DHT22;2497;47.410;9.740;2023-04-06T05:29:26;0.30;99.90
4964;DHT22;2497;47.410;9.740;2023-04-06T05:31:59;0.30;99.90
4964;DHT22;2497;47.410;9.740;2023-04-06T05:34:26;0.30;99.90
4964;DHT22;2497;47.410;9.740;2023-04-06T05:36:55;0.50;99.90
4964;DHT22;2497;47.410;9.740;2023-04-06T05:39:22;0.60;99.90
4964;DHT22;2497;47.410;9.740;2023-04-06T05:41:49;0.60;99.90
4964;DHT22;2497;47.410;9.740;2023-04-06T05:44:16;0.70;99.90
4964;DHT22;2497;47.410;9.740;2023-04-06T05:46:44;0.70;99.90
4964;DHT22;2497;47.410;9.740;2023-04-06T05:49:11;0.60;99.90
4964;DHT22;2497;47.410;9.740;2023-04-06T05:51:38;0.60;99.90
4964;DHT22;2497;47.410;9.740;2023-04-06T05:54:07;0.60;99.90
4964;DHT22;2497;47.410;9.740;2023-04-06T05:56:35;0.60;99.90
4964;DHT22;2497;47.410;9.740;2023-04-06T05:59:03;0.60;99.90
4964;DHT22;2497;47.410;9.740;2023-04-06T06:01:33;0.70;99.90
4964;DHT22;2497;47.410;9.740;2023-04-06T06:04:01;0.80;99.90
4964;DHT22;2497;47.410;9.740;2023-04-06T06:06:28;1.00;99.90
4964;DHT22;2497;47.410;9.740;2023-04-06T06:08:58;1.20;99.90
4964;DHT22;2497;47.410;9.740;2023-04-06T06:11:27;1.40;99.90
4964;DHT22;2497;47.410;9.740;2023-04-06T06:13:55;1.60;99.90
4964;DHT22;2497;47.410;9.740;2023-04-06T06:16:22;1.90;99.90
4964;DHT22;2497;47.410;9.740;2023-04-06T06:18:50;2.00;99.90
4964;DHT22;2497;47.410;9.740;2023-04-06T06:21:17;2.30;99.90
4964;DHT22;2497;47.410;9.740;2023-04-06T06:23:44;2.40;99.90
4964;DHT22;2497;47.410;9.740;2023-04-06T06:26:14;2.60;99.90
4964;DHT22;2497;47.410;9.740;2023-04-06T06:28:42;2.70;99.90
4964;DHT22;2497;47.410;9.740;2023-04-06T06:31:09;2.90;99.90
4964;DHT22;2497;47.410;9.740;2023-04-06T06:33:37;3.20;99.90
4964;DHT22;2497;47.410;9.740;2023-04-06T06:36:04;3.70;99.90
4964;DHT22;2497;47.410;9.740;2023-04-06T06:38:32;4.10;99.90
4964;DHT22;2497;47.410;9.740;2023-04-06T06:40:59;4.80;99.90
4964;DHT22;2497;47.410;9.740;2023-04-06T06:43:26;5.40;99.90
4964;DHT22;2497;47.410;9.740;2023-04-06T06:45:55;5.40;99.90
4964;DHT22;2497;47.410;9.740;2023-04-06T06:48:22;6.10;99.90
4964;DHT22;2497;47.410;9.740;2023-04-06T06:50:49;6.60;99.90
4964;DHT22;2497;47.410;9.740;2023-04-06T06:53:17;6.20;99.90
4964;DHT22;2497;47.410;9.740;2023-04-06T06:55:44;6.10;99.90
4964;DHT22;2497;47.410;9.740;2023-04-06T06:58:11;6.00;99.90
4964;DHT22;2497;47.410;9.740;2023-04-06T07:00:39;5.80;99.90
4964;DHT22;2497;47.410;9.740;2023-04-06T07:03:07;5.60;99.90
4964;DHT22;2497;47.410;9.740;2023-04-06T07:05:34;5.60;99.90
4964;DHT22;2497;47.410;9.740;2023-04-06T07:08:02;5.60;99.90
4964;DHT22;2497;47.410;9.740;2023-04-06T07:10:29;5.60;99.90
4964;DHT22;2497;47.410;9.740;2023-04-06T07:12:57;5.70;99.90
4964;DHT22;2497;47.410;9.740;2023-04-06T07:15:25;5.90;99.90
4964;DHT22;2497;47.410;9.740;2023-04-06T07:17:52;6.30;99.90
4964;DHT22;2497;47.410;9.740;2023-04-06T07:20:21;6.30;99.90
4964;DHT22;2497;47.410;9.740;2023-04-06T07:22:48;6.30;99.90
4964;DHT22;2497;47.410;9.740;2023-04-06T07:25:16;6.40;99.90
4964;DHT22;2497;47.410;9.740;2023-04-06T07:27:43;6.70;99.90
4964;DHT22;2497;47.410;9.740;2023-04-06T07:30:10;7.20;99.90
4964;DHT22;2497;47.410;9.740;2023-04-06T07:32:38;7.20;99.90
4964;DHT22;2497;47.410;9.740;2023-04-06T07:35:05;7.30;99.90
4964;DHT22;2497;47.410;9.740;2023-04-06T07:37:36;7.20;99.90
4964;DHT22;2497;47.410;9.740;2023-04-06T07:40:04;7.30;99.90
4964;DHT22;2497;47.410;9.740;2023-04-06T07:42:32;8.10;99.90
4964;DHT22;2497;47.410;9.740;2023-04-06T07:44:59;8.00;99.90
4964;DHT22;2497;47.410;9.740;2023-04-06T07:47:27;8.50;99.90
4964;DHT22;2497;47.410;9.740;2023-04-06T07:49:55;9.50;99.90
4964;DHT22;2497;47.410;9.740;2023-04-06T07:52:22;10.60;99.90
4964;DHT22;2497;47.410;9.740;2023-04-06T07:54:51;10.40;99.90
4964;DHT22;2497;47.410;9.740;2023-04-06T07:57:21;9.80;99.90
4964;DHT22;2497;47.410;9.740;2023-04-06T07:59:49;9.30;99.90
4964;DHT22;2497;47.410;9.740;2023-04-06T08:02:17;9.70;99.90
4964;DHT22;2497;47.410;9.740;2023-04-06T08:04:44;9.50;99.90
4964;DHT22;2497;47.410;9.740;2023-04-06T08:07:11;9.20;99.90
4964;DHT22;2497;47.410;9.740;2023-04-06T08:09:39;9.00;99.90
4964;DHT22;2497;47.410;9.740;2023-04-06T08:12:08;9.20;99.90
4964;DHT22;2497;47.410;9.740;2023-04-06T08:14:35;9.00;99.90
4964;DHT22;2497;47.410;9.740;2023-04-06T08:17:03;9.00;99.90
4964;DHT22;2497;47.410;9.740;2023-04-06T08:19:30;9.30;99.90
4964;DHT22;2497;47.410;9.740;2023-04-06T08:21:57;9.80;99.90
4964;DHT22;2497;47.410;9.740;2023-04-06T08:24:25;10.20;99.90
4964;DHT22;2497;47.410;9.740;2023-04-06T08:26:53;10.00;99.90
4964;DHT22;2497;47.410;9.740;2023-04-06T08:29:22;10.00;99.90
4964;DHT22;2497;47.410;9.740;2023-04-06T08:31:49;9.80;99.90
4964;DHT22;2497;47.410;9.740;2023-04-06T08:34:16;10.70;99.90
4964;DHT22;2497;47.410;9.740;2023-04-06T08:36:43;10.90;99.90
4964;DHT22;2497;47.410;9.740;2023-04-06T08:39:11;10.60;99.90
4964;DHT22;2497;47.410;9.740;2023-04-06T08:41:38;10.40;99.90
4964;DHT22;2497;47.410;9.740;2023-04-06T08:44:13;10.90;99.90
4964;DHT22;2497;47.410;9.740;2023-04-06T08:46:42;11.90;99.90
4964;DHT22;2497;47.410;9.740;2023-04-06T08:49:09;12.00;99.90
4964;DHT22;2497;47.410;9.740;2023-04-06T08:51:37;12.40;99.90
4964;DHT22;2497;47.410;9.740;2023-04-06T08:54:04;13.00;99.90
4964;DHT22;2497;47.410;9.740;2023-04-06T08:56:32;13.00;99.90
4964;DHT22;2497;47.410;9.740;2023-04-06T08:59:01;13.50;99.90
4964;DHT22;2497;47.410;9.740;2023-04-06T09:01:31;14.10;99.90
4964;DHT22;2497;47.410;9.740;2023-04-06T09:04:01;13.50;99.90
4964;DHT22;2497;47.410;9.740;2023-04-06T09:06:30;13.10;99.90
4964;DHT22;2497;47.410;9.740;2023-04-06T09:08:59;12.70;99.90
4964;DHT22;2497;47.410;9.740;2023-04-06T09:11:27;12.60;99.90
4964;DHT22;2497;47.410;9.740;2023-04-06T09:13:56;12.30;99.90
4964;DHT22;2497;47.410;9.740;2023-04-06T09:16:23;12.20;99.90
4964;DHT22;2497;47.410;9.740;2023-04-06T09:18:51;12.30;99.90
4964;DHT22;2497;47.410;9.740;2023-04-06T09:21:20;13.20;99.90
4964;DHT22;2497;47.410;9.740;2023-04-06T09:23:47;13.80;99.90
4964;DHT22;2497;47.410;9.740;2023-04-06T09:26:17;14.50;99.90
4964;DHT22;2497;47.410;9.740;2023-04-06T09:28:51;13.90;99.90
4964;DHT22;2497;47.410;9.740;2023-04-06T09:31:23;13.90;99.90
4964;DHT22;2497;47.410;9.740;2023-04-06T09:33:51;14.90;99.90
4964;DHT22;2497;47.410;9.740;2023-04-06T09:36:30;15.30;99.90
4964;DHT22;2497;47.410;9.740;2023-04-06T09:38:58;15.90;99.90
4964;DHT22;2497;47.410;9.740;2023-04-06T09:41:28;15.90;99.90
4964;DHT22;2497;47.410;9.740;2023-04-06T09:46:53;15.10;99.90
4964;DHT22;2497;47.410;9.740;2023-04-06T09:49:22;14.20;99.90
4964;DHT22;2497;47.410;9.740;2023-04-06T09:51:58;14.50;99.90
4964;DHT22;2497;47.410;9.740;2023-04-06T09:54:30;15.10;99.90
4964;DHT22;2497;47.410;9.740;2023-04-06T09:57:03;15.90;99.90
4964;DHT22;2497;47.410;9.740;2023-04-06T09:59:37;16.80;99.90
4964;DHT22;2497;47.410;9.740;2023-04-06T10:02:08;16.10;99.90
4964;DHT22;2497;47.410;9.740;2023-04-06T10:04:43;15.50;99.90
4964;DHT22;2497;47.410;9.740;2023-04-06T10:07:12;15.30;99.90
4964;DHT22;2497;47.410;9.740;2023-04-06T10:09:43;15.00;99.90
4964;DHT22;2497;47.410;9.740;2023-04-06T10:12:13;14.50;99.90
4964;DHT22;2497;47.410;9.740;2023-04-06T10:14:43;14.00;99.90
4964;DHT22;2497;47.410;9.740;2023-04-06T10:17:10;13.80;99.90
4964;DHT22;2497;47.410;9.740;2023-04-06T10:19:42;14.40;99.90
4964;DHT22;2497;47.410;9.740;2023-04-06T10:22:18;15.50;99.90
4964;DHT22;2497;47.410;9.740;2023-04-06T10:24:48;15.20;99.90
4964;DHT22;2497;47.410;9.740;2023-04-06T10:27:15;16.50;99.90
4964;DHT22;2497;47.410;9.740;2023-04-06T10:29:44;16.50;99.90
4964;DHT22;2497;47.410;9.740;2023-04-06T10:32:12;15.80;99.90
4964;DHT22;2497;47.410;9.740;2023-04-06T10:34:39;15.20;99.90
4964;DHT22;2497;47.410;9.740;2023-04-06T10:37:15;15.50;99.90
4964;DHT22;2497;47.410;9.740;2023-04-06T10:39:46;15.70;99.90
4964;DHT22;2497;47.410;9.740;2023-04-06T10:42:14;15.80;99.90
4964;DHT22;2497;47.410;9.740;2023-04-06T10:44:43;15.20;99.90
4964;DHT22;2497;47.410;9.740;2023-04-06T10:47:16;15.50;99.90
4964;DHT22;2497;47.410;9.740;2023-04-06T10:49:44;15.40;99.90
4964;DHT22;2497;47.410;9.740;2023-04-06T10:52:11;15.50;99.90
4964;DHT22;2497;47.410;9.740;2023-04-06T10:54:41;15.10;99.90
4964;DHT22;2497;47.410;9.740;2023-04-06T10:57:09;15.50;99.90
4964;DHT22;2497;47.410;9.740;2023-04-06T10:59:36;15.30;99.90
4964;DHT22;2497;47.410;9.740;2023-04-06T11:02:04;16.00;99.90
4964;DHT22;2497;47.410;9.740;2023-04-06T11:04:31;16.00;99.90
4964;DHT22;2497;47.410;9.740;2023-04-06T11:06:58;16.30;99.90
4964;DHT22;2497;47.410;9.740;2023-04-06T11:09:26;16.30;99.90
4964;DHT22;2497;47.410;9.740;2023-04-06T11:11:55;16.50;99.90
4964;DHT22;2497;47.410;9.740;2023-04-06T11:14:23;16.90;99.90
4964;DHT22;2497;47.410;9.740;2023-04-06T11:17:06;17.10;99.90
4964;DHT22;2497;47.410;9.740;2023-04-06T11:19:34;17.60;99.90
4964;DHT22;2497;47.410;9.740;2023-04-06T11:22:07;17.80;99.90
4964;DHT22;2497;47.410;9.740;2023-04-06T11:24:34;18.30;99.90
4964;DHT22;2497;47.410;9.740;2023-04-06T11:27:03;18.40;99.90
4964;DHT22;2497;47.410;9.740;2023-04-06T11:29:31;17.60;99.90
4964;DHT22;2497;47.410;9.740;2023-04-06T11:32:00;18.60;99.90
4964;DHT22;2497;47.410;9.740;2023-04-06T11:34:29;19.90;99.90
4964;DHT22;2497;47.410;9.740;2023-04-06T11:37:01;19.70;99.90
4964;DHT22;2497;47.410;9.740;2023-04-06T11:39:32;19.70;99.90
4964;DHT22;2497;47.410;9.740;2023-04-06T11:42:01;18.70;99.90
4964;DHT22;2497;47.410;9.740;2023-04-06T11:44:32;19.10;99.90
4964;DHT22;2497;47.410;9.740;2023-04-06T11:47:01;19.70;99.90
4964;DHT22;2497;47.410;9.740;2023-04-06T11:49:29;20.00;99.90
4964;DHT22;2497;47.410;9.740;2023-04-06T11:51:56;20.70;99.90
4964;DHT22;2497;47.410;9.740;2023-04-06T11:54:32;20.50;99.90
4964;DHT22;2497;47.410;9.740;2023-04-06T11:57:00;20.00;99.90
4964;DHT22;2497;47.410;9.740;2023-04-06T11:59:30;20.00;99.90
4964;DHT22;2497;47.410;9.740;2023-04-06T12:01:57;19.90;99.90
4964;DHT22;2497;47.410;9.740;2023-04-06T12:04:25;20.50;99.90
4964;DHT22;2497;47.410;9.740;2023-04-06T12:06:52;20.30;99.90
4964;DHT22;2497;47.410;9.740;2023-04-06T12:09:19;19.50;99.90
4964;DHT22;2497;47.410;9.740;2023-04-06T12:11:47;19.60;99.90
4964;DHT22;2497;47.410;9.740;2023-04-06T12:14:14;20.30;99.90
4964;DHT22;2497;47.410;9.740;2023-04-06T12:16:43;21.50;99.90
4964;DHT22;2497;47.410;9.740;2023-04-06T12:19:10;21.20;99.90
4964;DHT22;2497;47.410;9.740;2023-04-06T12:21:37;20.70;99.90
4964;DHT22;2497;47.410;9.740;2023-04-06T12:24:06;20.90;99.90
4964;DHT22;2497;47.410;9.740;2023-04-06T12:26:34;20.60;99.90
4964;DHT22;2497;47.410;9.740;2023-04-06T12:29:01;20.20;99.90
4964;DHT22;2497;47.410;9.740;2023-04-06T12:31:33;20.60;99.90
4964;DHT22;2497;47.410;9.740;2023-04-06T12:34:03;21.30;99.90
4964;DHT22;2497;47.410;9.740;2023-04-06T12:36:30;21.40;99.90
4964;DHT22;2497;47.410;9.740;2023-04-06T12:38:58;21.10;99.90
4964;DHT22;2497;47.410;9.740;2023-04-06T12:41:39;21.60;99.90
4964;DHT22;2497;47.410;9.740;2023-04-06T12:44:07;22.30;99.90
4964;DHT22;2497;47.410;9.740;2023-04-06T12:46:34;23.20;99.90
4964;DHT22;2497;47.410;9.740;2023-04-06T12:49:03;23.30;99.90
4964;DHT22;2497;47.410;9.740;2023-04-06T12:51:30;24.00;99.90
4964;DHT22;2497;47.410;9.740;2023-04-06T12:53:57;25.10;99.90
4964;DHT22;2497;47.410;9.740;2023-04-06T12:56:27;24.40;99.90
4964;DHT22;2497;47.410;9.740;2023-04-06T12:58:54;23.40;99.90
4964;DHT22;2497;47.410;9.740;2023-04-06T13:01:22;22.10;99.90
4964;DHT22;2497;47.410;9.740;2023-04-06T13:03:50;22.50;99.90
4964;DHT22;2497;47.410;9.740;2023-04-06T13:06:19;22.30;99.90
4964;DHT22;2497;47.410;9.740;2023-04-06T13:08:49;23.50;99.90
4964;DHT22;2497;47.410;9.740;2023-04-06T13:11:16;23.30;99.90
4964;DHT22;2497;47.410;9.740;2023-04-06T13:13:46;24.20;99.90
4964;DHT22;2497;47.410;9.740;2023-04-06T13:16:13;23.70;99.90
4964;DHT22;2497;47.410;9.740;2023-04-06T13:18:41;22.70;99.90
4964;DHT22;2497;47.410;9.740;2023-04-06T13:21:08;23.70;99.90
4964;DHT22;2497;47.410;9.740;2023-04-06T13:23:36;24.40;99.90
4964;DHT22;2497;47.410;9.740;2023-04-06T13:26:05;23.60;99.90
4964;DHT22;2497;47.410;9.740;2023-04-06T13:28:33;23.50;99.90
4964;DHT22;2497;47.410;9.740;2023-04-06T13:31:07;22.30;99.90
4964;DHT22;2497;47.410;9.740;2023-04-06T13:33:38;22.00;99.90
4964;DHT22;2497;47.410;9.740;2023-04-06T13:36:15;21.30;99.90
4964;DHT22;2497;47.410;9.740;2023-04-06T13:39:07;22.60;99.90
4964;DHT22;2497;47.410;9.740;2023-04-06T13:41:39;23.30;99.90
4964;DHT22;2497;47.410;9.740;2023-04-06T13:44:07;22.30;99.90
4964;DHT22;2497;47.410;9.740;2023-04-06T13:46:36;21.90;99.90
4964;DHT22;2497;47.410;9.740;2023-04-06T13:49:03;22.10;99.90
4964;DHT22;2497;47.410;9.740;2023-04-06T13:51:31;23.30;99.90
4964;DHT22;2497;47.410;9.740;2023-04-06T13:54:02;22.50;99.90
4964;DHT22;2497;47.410;9.740;2023-04-06T13:56:29;22.70;99.90
4964;DHT22;2497;47.410;9.740;2023-04-06T13:58:56;22.80;99.90
4964;DHT22;2497;47.410;9.740;2023-04-06T14:01:24;23.00;99.90
4964;DHT22;2497;47.410;9.740;2023-04-06T14:03:52;23.40;99.90
4964;DHT22;2497;47.410;9.740;2023-04-06T14:06:19;23.00;99.90
4964;DHT22;2497;47.410;9.740;2023-04-06T14:08:46;22.50;99.90
4964;DHT22;2497;47.410;9.740;2023-04-06T14:11:15;22.00;99.90
4964;DHT22;2497;47.410;9.740;2023-04-06T14:13:42;22.10;99.90
4964;DHT22;2497;47.410;9.740;2023-04-06T14:16:09;22.00;99.90
4964;DHT22;2497;47.410;9.740;2023-04-06T14:18:37;22.30;99.90
4964;DHT22;2497;47.410;9.740;2023-04-06T14:21:04;22.00;99.90
4964;DHT22;2497;47.410;9.740;2023-04-06T14:23:32;21.50;99.90
4964;DHT22;2497;47.410;9.740;2023-04-06T14:26:01;20.70;99.90
4964;DHT22;2497;47.410;9.740;2023-04-06T14:28:31;20.40;99.90
4964;DHT22;2497;47.410;9.740;2023-04-06T14:30:59;20.00;99.90
4964;DHT22;2497;47.410;9.740;2023-04-06T14:33:28;19.40;99.90
4964;DHT22;2497;47.410;9.740;2023-04-06T14:35:56;19.30;99.90
4964;DHT22;2497;47.410;9.740;2023-04-06T14:38:23;19.50;99.90
4964;DHT22;2497;47.410;9.740;2023-04-06T14:40:50;19.20;99.90
4964;DHT22;2497;47.410;9.740;2023-04-06T14:43:18;17.90;99.90
4964;DHT22;2497;47.410;9.740;2023-04-06T14:45:46;17.90;99.90
4964;DHT22;2497;47.410;9.740;2023-04-06T14:48:13;17.80;99.90
4964;DHT22;2497;47.410;9.740;2023-04-06T14:50:51;17.70;99.90
4964;DHT22;2497;47.410;9.740;2023-04-06T14:53:18;17.70;99.90
4964;DHT22;2497;47.410;9.740;2023-04-06T14:55:46;17.50;99.90
4964;DHT22;2497;47.410;9.740;2023-04-06T14:58:13;16.90;99.90
4964;DHT22;2497;47.410;9.740;2023-04-06T15:00:40;17.40;99.90
4964;DHT22;2497;47.410;9.740;2023-04-06T15:03:08;17.50;99.90
4964;DHT22;2497;47.410;9.740;2023-04-06T15:05:36;18.40;99.90
4964;DHT22;2497;47.410;9.740;2023-04-06T15:08:03;19.40;99.90
4964;DHT22;2497;47.410;9.740;2023-04-06T15:10:31;20.20;99.90
4964;DHT22;2497;47.410;9.740;2023-04-06T15:12:58;20.10;99.90
4964;DHT22;2497;47.410;9.740;2023-04-06T15:15:28;20.00;99.90
4964;DHT22;2497;47.410;9.740;2023-04-06T15:18:11;20.30;99.90
4964;DHT22;2497;47.410;9.740;2023-04-06T15:20:38;19.70;99.90
4964;DHT22;2497;47.410;9.740;2023-04-06T15:23:06;19.40;99.90
4964;DHT22;2497;47.410;9.740;2023-04-06T15:25:33;19.10;99.90
4964;DHT22;2497;47.410;9.740;2023-04-06T15:28:00;19.00;99.90
4964;DHT22;2497;47.410;9.740;2023-04-06T15:30:29;19.20;99.90
4964;DHT22;2497;47.410;9.740;2023-04-06T15:32:58;18.90;99.90
4964;DHT22;2497;47.410;9.740;2023-04-06T15:35:28;18.40;99.90
4964;DHT22;2497;47.410;9.740;2023-04-06T15:37:55;18.50;99.90
4964;DHT22;2497;47.410;9.740;2023-04-06T15:40:25;18.50;99.90
4964;DHT22;2497;47.410;9.740;2023-04-06T15:42:53;18.30;99.90
4964;DHT22;2497;47.410;9.740;2023-04-06T15:45:20;18.80;99.90
4964;DHT22;2497;47.410;9.740;2023-04-06T15:47:48;19.10;99.90
4964;DHT22;2497;47.410;9.740;2023-04-06T15:50:15;19.00;99.90
4964;DHT22;2497;47.410;9.740;2023-04-06T15:52:45;19.40;99.90
4964;DHT22;2497;47.410;9.740;2023-04-06T15:55:12;19.70;99.90
4964;DHT22;2497;47.410;9.740;2023-04-06T15:57:40;19.20;99.90
4964;DHT22;2497;47.410;9.740;2023-04-06T16:00:08;18.60;99.90
4964;DHT22;2497;47.410;9.740;2023-04-06T16:02:35;17.90;99.90
4964;DHT22;2497;47.410;9.740;2023-04-06T16:05:05;17.60;99.90
4964;DHT22;2497;47.410;9.740;2023-04-06T16:07:32;17.30;99.90
4964;DHT22;2497;47.410;9.740;2023-04-06T16:10:01;17.00;99.90
4964;DHT22;2497;47.410;9.740;2023-04-06T16:12:31;17.20;99.90
4964;DHT22;2497;47.410;9.740;2023-04-06T16:14:58;17.00;99.90
4964;DHT22;2497;47.410;9.740;2023-04-06T16:17:26;16.30;99.90
4964;DHT22;2497;47.410;9.740;2023-04-06T16:19:53;16.20;99.90